Time;durP1;ratioP1;P1;durP2;ratioP2;P2;SDS_P1;SDS_P2;PMS_P1;PMS_P2;Temp;Humidity;BMP_temperature;BMP_pressure;BME280_temperature;BME280_humidity;BME280_pressure;Samples;Min_cycle;Max_cycle;Signal;HPM_P1;HPM_P2
2021/06/20 00:00:18;;;;;;;4.97;2.30;;;;;;;;;;5116152;28;20023;-65
2021/06/20 00:02:45;;;;;;;4.93;2.55;;;;;;;;;;5115825;28;20084;-65
2021/06/20 00:05:16;;;;;;;6.00;3.05;;;;;;;;;;5116340;28;20099;-65
2021/06/20 00:07:42;;;;;;;2.70;2.40;;;;;;;;;;5116128;28;20110;-67
2021/06/20 00:10:09;;;;;;;4.40;2.42;;;;;;;;;;5097890;28;20023;-69
2021/06/20 00:12:36;;;;;;;2.83;2.67;;;;;;;;;;5116007;28;20016;-66
2021/06/20 00:15:03;;;;;;;6.38;2.72;;;;;;;;;;5097549;28;20481;-66
2021/06/20 00:17:29;;;;;;;2.95;2.72;;;;;;;;;;5115418;28;20072;-69
2021/06/20 00:19:55;;;;;;;2.92;2.40;;;;;;;;;;5115814;28;20020;-67
2021/06/20 00:22:22;;;;;;;9.25;3.47;;;;;;;;;;5097475;28;20038;-67
2021/06/20 00:24:48;;;;;;;5.22;2.58;;;;;;;;;;5115618;28;20042;-65
2021/06/20 00:27:14;;;;;;;6.75;2.85;;;;;;;;;;5115355;28;20028;-67
2021/06/20 00:29:40;;;;;;;6.67;2.63;;;;;;;;;;5115470;28;20030;-67
2021/06/20 00:32:07;;;;;;;7.40;2.55;;;;;;;;;;5115431;28;20110;-67
2021/06/20 00:34:33;;;;;;;3.83;3.20;;;;;;;;;;5115950;28;20101;-71
2021/06/20 00:36:59;;;;;;;3.28;2.88;;;;;;;;;;5115612;28;20023;-67
2021/06/20 00:39:25;;;;;;;4.27;3.17;;;;;;;;;;5096844;28;20024;-66
2021/06/20 00:41:51;;;;;;;5.95;2.95;;;;;;;;;;5115478;28;20469;-69
2021/06/20 00:44:17;;;;;;;2.22;2.13;;;;;;;;;;5114877;28;20093;-68
2021/06/20 00:46:43;;;;;;;6.13;3.47;;;;;;;;;;5114971;28;20048;-65
2021/06/20 00:49:10;;;;;;;3.00;2.83;;;;;;;;;;5115252;28;20481;-68
2021/06/20 00:51:36;;;;;;;4.10;2.47;;;;;;;;;;5115080;28;20042;-66
2021/06/20 00:54:02;;;;;;;5.85;3.83;;;;;;;;;;5115345;28;20024;-67
2021/06/20 00:56:28;;;;;;;5.97;2.97;;;;;;;;;;5115112;28;20031;-66
2021/06/20 00:59:02;;;;;;;4.85;3.00;;;;;;;;;;5096484;28;20031;-68
2021/06/20 01:01:29;;;;;;;4.47;2.55;;;;;;;;;;5096994;28;20446;-66
2021/06/20 01:03:56;;;;;;;3.50;3.30;;;;;;;;;;5096365;28;20081;-67
2021/06/20 01:06:22;;;;;;;5.05;3.03;;;;;;;;;;5114680;28;20042;-67
2021/06/20 01:08:48;;;;;;;2.33;2.10;;;;;;;;;;5096852;28;20031;-67
2021/06/20 01:11:15;;;;;;;3.88;2.40;;;;;;;;;;5096609;28;20490;-69
2021/06/20 01:13:41;;;;;;;8.50;3.80;;;;;;;;;;5114393;28;20066;-67
2021/06/20 01:16:07;;;;;;;4.20;3.10;;;;;;;;;;5114732;28;20019;-67
2021/06/20 01:18:33;;;;;;;4.23;3.63;;;;;;;;;;5114980;28;20028;-65
2021/06/20 01:20:59;;;;;;;4.63;3.17;;;;;;;;;;5114331;28;20026;-68
2021/06/20 01:23:25;;;;;;;3.72;2.63;;;;;;;;;;5096332;28;20072;-67
2021/06/20 01:25:52;;;;;;;4.07;2.80;;;;;;;;;;5114457;28;20027;-65
2021/06/20 01:28:20;;;;;;;7.93;3.03;;;;;;;;;;5113800;28;20036;-66
2021/06/20 01:30:47;;;;;;;3.40;2.70;;;;;;;;;;5114775;28;20020;-66
2021/06/20 01:33:14;;;;;;;3.13;2.92;;;;;;;;;;5114411;28;20103;-68
2021/06/20 01:35:40;;;;;;;;;;;;;;;;;;5115005;28;20024;-69
2021/06/20 01:38:07;;;;;;;9.57;3.00;;;;;;;;;;5096060;28;19910;-68
2021/06/20 01:40:33;;;;;;;4.90;2.95;;;;;;;;;;5095612;28;20260;-67
2021/06/20 01:42:59;;;;;;;4.30;3.53;;;;;;;;;;5114536;28;20360;-68
2021/06/20 01:45:26;;;;;;;6.27;3.07;;;;;;;;;;5095821;28;20024;-69
2021/06/20 01:47:52;;;;;;;;;;;;;;;;;;5092358;28;20051;-68
2021/06/20 01:50:19;;;;;;;3.87;2.30;;;;;;;;;;5093832;28;19908;-66
2021/06/20 01:52:45;;;;;;;3.17;2.88;;;;;;;;;;5093670;28;20280;-71
2021/06/20 01:55:12;;;;;;;2.75;2.50;;;;;;;;;;5093313;28;20020;-70
2021/06/20 01:57:40;;;;;;;4.78;2.83;;;;;;;;;;5093626;28;20032;-68
2021/06/20 02:00:16;;;;;;;6.40;3.72;;;;;;;;;;5093370;28;20028;-70
2021/06/20 02:02:43;;;;;;;3.58;2.88;;;;;;;;;;5092252;28;20043;-67
2021/06/20 02:05:10;;;;;;;4.60;3.20;;;;;;;;;;5093481;28;20028;-72
2021/06/20 02:07:37;;;;;;;3.35;2.63;;;;;;;;;;5093349;28;20040;-67
2021/06/20 02:10:04;;;;;;;5.10;3.40;;;;;;;;;;5092854;28;20020;-68
2021/06/20 02:12:30;;;;;;;6.82;3.10;;;;;;;;;;5093403;28;20032;-67
2021/06/20 02:14:56;;;;;;;7.78;3.53;;;;;;;;;;5092026;28;20028;-65
2021/06/20 02:17:26;;;;;;;6.45;3.70;;;;;;;;;;5092781;28;20084;-70
2021/06/20 02:19:53;;;;;;;3.42;3.22;;;;;;;;;;5093995;28;20061;-67
2021/06/20 02:22:19;;;;;;;;;;;;;;;;;;5093183;28;20055;-66
2021/06/20 02:24:45;;;;;;;3.30;3.00;;;;;;;;;;5092068;28;19944;-68
2021/06/20 02:27:13;;;;;;;3.77;3.03;;;;;;;;;;5091671;28;20507;-69
2021/06/20 02:29:40;;;;;;;3.40;3.17;;;;;;;;;;5092477;28;20020;-67
2021/06/20 02:32:06;;;;;;;3.75;3.40;;;;;;;;;;5093114;28;20024;-64
2021/06/20 02:34:32;;;;;;;6.57;2.72;;;;;;;;;;5093308;28;20023;-66
2021/06/20 02:36:59;;;;;;;3.97;3.03;;;;;;;;;;5092687;28;20137;-72
2021/06/20 02:39:25;;;;;;;8.15;3.05;;;;;;;;;;5091933;28;20426;-72
2021/06/20 02:41:51;;;;;;;5.28;2.75;;;;;;;;;;5091573;28;20469;-76
2021/06/20 02:44:17;;;;;;;7.93;4.97;;;;;;;;;;5091469;28;20074;-71
2021/06/20 02:46:44;;;;;;;8.70;4.10;;;;;;;;;;5101866;28;20424;-70
2021/06/20 02:49:10;;;;;;;5.38;4.55;;;;;;;;;;5095024;28;20023;-71
2021/06/20 02:51:37;;;;;;;7.88;4.97;;;;;;;;;;5094249;28;20016;-71
2021/06/20 02:54:03;;;;;;;6.38;3.95;;;;;;;;;;5094839;28;20034;-68
2021/06/20 02:56:29;;;;;;;9.00;4.23;;;;;;;;;;5113009;28;20525;-72
2021/06/20 02:58:55;;;;;;;7.95;4.05;;;;;;;;;;5112782;28;20088;-69
2021/06/20 03:01:21;;;;;;;6.90;3.50;;;;;;;;;;5095030;28;20024;-69
2021/06/20 03:03:47;;;;;;;4.63;3.72;;;;;;;;;;5113175;28;20522;-69
2021/06/20 03:06:15;;;;;;;4.53;3.78;;;;;;;;;;5094312;28;20024;-69
2021/06/20 03:08:41;;;;;;;7.63;4.40;;;;;;;;;;5112900;28;20020;-68
2021/06/20 03:11:07;;;;;;;12.35;3.30;;;;;;;;;;5095239;28;20176;-67
2021/06/20 03:13:33;;;;;;;7.28;3.85;;;;;;;;;;5112665;28;20376;-65
2021/06/20 03:15:59;;;;;;;15.23;3.80;;;;;;;;;;5113175;28;20081;-65
2021/06/20 03:18:25;;;;;;;5.05;4.35;;;;;;;;;;5112330;28;20092;-66
2021/06/20 03:20:51;;;;;;;6.22;4.00;;;;;;;;;;5095055;28;20461;-67
2021/06/20 03:23:18;;;;;;;8.85;4.55;;;;;;;;;;5112906;28;20040;-69
2021/06/20 03:25:44;;;;;;;6.80;3.70;;;;;;;;;;5112732;28;20095;-67
2021/06/20 03:28:10;;;;;;;7.47;5.20;;;;;;;;;;5094414;28;20035;-67
2021/06/20 03:30:36;;;;;;;3.85;3.60;;;;;;;;;;5116763;28;20084;-66
2021/06/20 03:33:02;;;;;;;4.40;4.00;;;;;;;;;;5116521;28;20372;-66
2021/06/20 03:35:29;;;;;;;4.63;3.77;;;;;;;;;;5116774;28;20077;-68
2021/06/20 03:37:55;;;;;;;5.40;2.97;;;;;;;;;;5116716;28;20031;-71
2021/06/20 03:40:22;;;;;;;7.22;3.47;;;;;;;;;;5098021;28;20460;-69
2021/06/20 03:42:49;;;;;;;4.18;3.78;;;;;;;;;;5116616;28;20023;-67
2021/06/20 03:45:15;;;;;;;8.70;4.38;;;;;;;;;;5098183;28;20030;-68
2021/06/20 03:47:41;;;;;;;6.20;3.73;;;;;;;;;;5097591;28;20101;-68
2021/06/20 03:50:08;;;;;;;9.63;4.80;;;;;;;;;;5116418;28;20039;-68
2021/06/20 03:52:34;;;;;;;5.70;3.45;;;;;;;;;;5116751;28;20020;-69
2021/06/20 03:55:01;;;;;;;3.90;3.50;;;;;;;;;;5116118;28;20024;-66
2021/06/20 03:57:27;;;;;;;5.50;3.53;;;;;;;;;;5116605;28;20028;-68
2021/06/20 03:59:53;;;;;;;8.07;3.83;;;;;;;;;;5116521;28;20346;-67
2021/06/20 04:02:19;;;;;;;8.33;3.63;;;;;;;;;;5115572;28;20023;-68
2021/06/20 04:04:45;;;;;;;8.25;3.40;;;;;;;;;;5116250;28;20023;-68
2021/06/20 04:07:12;;;;;;;4.85;3.70;;;;;;;;;;5115354;28;20032;-68
2021/06/20 04:09:42;;;;;;;3.80;3.42;;;;;;;;;;5116274;28;20019;-68
2021/06/20 04:12:13;;;;;;;5.82;2.85;;;;;;;;;;5115898;28;20020;-68
2021/06/20 04:14:40;;;;;;;3.95;3.30;;;;;;;;;;5115516;28;20015;-69
2021/06/20 04:17:06;;;;;;;3.67;3.30;;;;;;;;;;5097511;28;20127;-69
2021/06/20 04:19:33;;;;;;;3.05;2.83;;;;;;;;;;5115819;28;20020;-69
2021/06/20 04:21:59;;;;;;;9.50;3.40;;;;;;;;;;5115430;28;20032;-68
2021/06/20 04:24:25;;;;;;;2.97;2.83;;;;;;;;;;5115954;28;20020;-69
2021/06/20 04:26:51;;;;;;;5.50;2.97;;;;;;;;;;5115250;28;20115;-67
2021/06/20 04:29:17;;;;;;;6.25;3.50;;;;;;;;;;5115128;28;20054;-69
2021/06/20 04:31:44;;;;;;;3.38;3.08;;;;;;;;;;5115607;28;20027;-69
2021/06/20 04:34:10;;;;;;;4.68;3.47;;;;;;;;;;5115510;28;20161;-68
2021/06/20 04:36:36;;;;;;;6.03;3.70;;;;;;;;;;5096925;28;20030;-67
2021/06/20 04:39:06;;;;;;;3.42;3.13;;;;;;;;;;5115731;28;20015;-68
2021/06/20 04:41:33;;;;;;;4.07;2.70;;;;;;;;;;5114832;28;20372;-67
2021/06/20 04:44:02;;;;;;;4.45;3.22;;;;;;;;;;5115118;28;20043;-67
2021/06/20 04:46:30;;;;;;;4.63;3.17;;;;;;;;;;5114891;28;20052;-67
2021/06/20 04:49:01;;;;;;;6.80;3.55;;;;;;;;;;5115006;28;20137;-68
2021/06/20 04:51:28;;;;;;;3.85;3.03;;;;;;;;;;5096591;28;20023;-67
2021/06/20 04:53:54;;;;;;;7.63;2.42;;;;;;;;;;5115145;28;20414;-68
2021/06/20 04:56:20;;;;;;;4.55;3.00;;;;;;;;;;5096505;28;20024;-69
2021/06/20 04:58:46;;;;;;;3.15;2.95;;;;;;;;;;5115055;28;20020;-68
2021/06/20 05:01:13;;;;;;;3.08;2.83;;;;;;;;;;5115049;28;20024;-68
2021/06/20 05:03:39;;;;;;;4.85;3.33;;;;;;;;;;5096377;28;20031;-67
2021/06/20 05:06:05;;;;;;;4.38;2.42;;;;;;;;;;5115734;28;20077;-68
2021/06/20 05:08:31;;;;;;;2.90;2.63;;;;;;;;;;5096482;28;20031;-68
2021/06/20 05:10:57;;;;;;;4.07;3.70;;;;;;;;;;5114761;28;20035;-68
2021/06/20 05:13:24;;;;;;;4.15;3.25;;;;;;;;;;5115176;28;20469;-68
2021/06/20 05:15:50;;;;;;;9.13;3.55;;;;;;;;;;5115005;28;20027;-68
2021/06/20 05:18:16;;;;;;;5.63;2.97;;;;;;;;;;5096124;28;20084;-68
2021/06/20 05:20:42;;;;;;;4.78;3.22;;;;;;;;;;5114755;28;20031;-68
2021/06/20 05:23:09;;;;;;;5.13;2.88;;;;;;;;;;5114791;28;20023;-68
2021/06/20 05:25:35;;;;;;;3.75;2.63;;;;;;;;;;5114331;28;20495;-67
2021/06/20 05:28:01;;;;;;;2.97;2.67;;;;;;;;;;5114221;28;20045;-69
2021/06/20 05:30:27;;;;;;;8.13;2.77;;;;;;;;;;5114780;28;20248;-68
2021/06/20 05:32:54;;;;;;;3.42;2.15;;;;;;;;;;5095899;28;20252;-69
2021/06/20 05:35:20;;;;;;;2.72;2.53;;;;;;;;;;5114937;28;20030;-69
2021/06/20 05:37:47;;;;;;;2.53;2.25;;;;;;;;;;5114099;28;20537;-68
2021/06/20 05:40:14;;;;;;;3.05;2.30;;;;;;;;;;5114248;28;20464;-70
2021/06/20 05:42:40;;;;;;;4.15;2.97;;;;;;;;;;5114272;28;20038;-69
2021/06/20 05:45:07;;;;;;;7.00;2.05;;;;;;;;;;5113910;28;20020;-68
2021/06/20 05:47:34;;;;;;;2.70;2.50;;;;;;;;;;5114285;28;20048;-68
2021/06/20 05:50:00;;;;;;;5.20;3.08;;;;;;;;;;5114102;28;20027;-69
2021/06/20 05:52:26;;;;;;;4.70;2.60;;;;;;;;;;5112799;28;20047;-66
2021/06/20 05:54:52;;;;;;;7.13;2.20;;;;;;;;;;5114780;28;20020;-65
2021/06/20 05:57:19;;;;;;;4.57;1.88;;;;;;;;;;5113962;28;20263;-65
2021/06/20 05:59:45;;;;;;;;;;;;;;;;;;5114028;28;20020;-67
2021/06/20 06:02:11;;;;;;;3.67;2.30;;;;;;;;;;5113620;28;19910;-68
2021/06/20 06:04:38;;;;;;;2.90;1.98;;;;;;;;;;5113585;28;20421;-68
2021/06/20 06:07:04;;;;;;;2.72;2.53;;;;;;;;;;5113410;28;20483;-67
2021/06/20 06:09:30;;;;;;;2.08;1.63;;;;;;;;;;5114073;28;20046;-68
2021/06/20 06:11:57;;;;;;;2.70;2.50;;;;;;;;;;5113440;28;20361;-66
2021/06/20 06:14:24;;;;;;;1.67;1.58;;;;;;;;;;5113013;28;20122;-67
2021/06/20 06:16:50;;;;;;;1.52;1.42;;;;;;;;;;5114086;28;20023;-67
2021/06/20 06:19:17;;;;;;;2.20;1.88;;;;;;;;;;5113556;28;20059;-67
2021/06/20 06:21:43;;;;;;;1.25;1.15;;;;;;;;;;5112925;28;20030;-67
2021/06/20 06:24:10;;;;;;;7.32;1.23;;;;;;;;;;5113583;28;20063;-67
2021/06/20 06:26:36;;;;;;;2.22;1.15;;;;;;;;;;5113416;28;20023;-68
2021/06/20 06:29:02;;;;;;;1.33;1.20;;;;;;;;;;5113132;28;20026;-70
2021/06/20 06:31:28;;;;;;;3.13;1.77;;;;;;;;;;5113449;28;20028;-68
2021/06/20 06:33:54;;;;;;;1.00;1.00;;;;;;;;;;5095135;28;20031;-68
2021/06/20 06:36:21;;;;;;;6.00;1.47;;;;;;;;;;5113131;28;20244;-68
2021/06/20 06:38:47;;;;;;;2.10;1.50;;;;;;;;;;5113085;28;20073;-68
2021/06/20 06:41:17;;;;;;;3.07;1.43;;;;;;;;;;5094704;28;20607;-68
2021/06/20 06:43:43;;;;;;;2.40;1.88;;;;;;;;;;5094984;28;20476;-69
2021/06/20 06:46:09;;;;;;;2.43;1.77;;;;;;;;;;5091331;28;20132;-69
2021/06/20 06:48:35;;;;;;;3.07;1.63;;;;;;;;;;5092698;28;20103;-69
2021/06/20 06:51:02;;;;;;;1.70;1.33;;;;;;;;;;5093109;28;20249;-69
2021/06/20 06:53:28;;;;;;;2.22;1.17;;;;;;;;;;5093662;28;20043;-69
2021/06/20 06:55:54;;;;;;;3.95;1.90;;;;;;;;;;5091500;28;20115;-68
2021/06/20 06:58:20;;;;;;;3.72;1.25;;;;;;;;;;5093244;28;20020;-69
2021/06/20 07:00:47;;;;;;;3.10;1.25;;;;;;;;;;5092465;28;20035;-70
2021/06/20 07:03:13;;;;;;;3.85;1.20;;;;;;;;;;5093753;28;20086;-69
2021/06/20 07:05:39;;;;;;;2.30;1.50;;;;;;;;;;5096539;28;20077;-68
2021/06/20 07:08:06;;;;;;;3.05;1.27;;;;;;;;;;5097155;28;20106;-70
2021/06/20 07:10:32;;;;;;;1.48;1.05;;;;;;;;;;5095472;28;20460;-69
2021/06/20 07:12:58;;;;;;;2.85;1.77;;;;;;;;;;5096482;28;20028;-67
2021/06/20 07:15:25;;;;;;;2.78;1.25;;;;;;;;;;5096956;28;20024;-70
2021/06/20 07:17:52;;;;;;;3.42;1.55;;;;;;;;;;5096896;28;20024;-70
2021/06/20 07:20:18;;;;;;;1.52;0.98;;;;;;;;;;5094995;28;20032;-69
2021/06/20 07:22:45;;;;;;;4.03;1.38;;;;;;;;;;5095226;28;20020;-69
2021/06/20 07:25:12;;;;;;;4.00;1.80;;;;;;;;;;5095168;28;20073;-69
2021/06/20 07:27:39;;;;;;;4.38;1.08;;;;;;;;;;5094635;28;20032;-70
2021/06/20 07:30:06;;;;;;;3.25;1.58;;;;;;;;;;5096367;28;20423;-68
2021/06/20 07:32:32;;;;;;;1.10;1.10;;;;;;;;;;5096570;28;20368;-69
2021/06/20 07:34:58;;;;;;;3.05;0.82;;;;;;;;;;5095993;28;20101;-68
2021/06/20 07:37:24;;;;;;;2.90;0.60;;;;;;;;;;5096681;28;20095;-69
2021/06/20 07:39:51;;;;;;;0.75;0.50;;;;;;;;;;5094876;28;20067;-69
2021/06/20 07:42:17;;;;;;;1.80;1.33;;;;;;;;;;5095514;28;20046;-70
2021/06/20 07:44:43;;;;;;;1.00;1.00;;;;;;;;;;5096070;28;20020;-69
2021/06/20 07:47:09;;;;;;;4.47;1.20;;;;;;;;;;5108250;28;20043;-70
2021/06/20 07:49:35;;;;;;;1.45;0.95;;;;;;;;;;5116202;28;20020;-68
2021/06/20 07:52:01;;;;;;;2.25;1.08;;;;;;;;;;5098074;28;20027;-69
2021/06/20 07:54:27;;;;;;;1.23;0.70;;;;;;;;;;5116360;28;20468;-69
2021/06/20 07:56:54;;;;;;;1.13;0.68;;;;;;;;;;5097648;28;20035;-69
2021/06/20 07:59:20;;;;;;;2.10;0.80;;;;;;;;;;5116201;28;20026;-69
2021/06/20 08:01:46;;;;;;;3.20;0.82;;;;;;;;;;5097526;28;20031;-69
2021/06/20 08:04:12;;;;;;;1.17;0.60;;;;;;;;;;5116188;28;20081;-69
2021/06/20 08:06:38;;;;;;;1.27;0.80;;;;;;;;;;5098596;28;20419;-70
2021/06/20 08:09:04;;;;;;;1.00;0.90;;;;;;;;;;5115863;28;20093;-68
2021/06/20 08:11:32;;;;;;;3.30;0.63;;;;;;;;;;5116120;28;20472;-68
2021/06/20 08:13:58;;;;;;;1.60;0.57;;;;;;;;;;5115717;28;20032;-69
2021/06/20 08:16:25;;;;;;;1.02;1.02;;;;;;;;;;5114913;28;20055;-69
2021/06/20 08:18:51;;;;;;;4.07;0.45;;;;;;;;;;5115806;28;20498;-69
2021/06/20 08:21:17;;;;;;;1.02;0.55;;;;;;;;;;5115518;28;20102;-68
2021/06/20 08:23:44;;;;;;;0.75;0.75;;;;;;;;;;5115849;28;20016;-70
2021/06/20 08:26:10;;;;;;;2.65;0.47;;;;;;;;;;5115990;28;20016;-69
2021/06/20 08:28:36;;;;;;;1.58;0.68;;;;;;;;;;5115591;28;20035;-69
2021/06/20 08:31:03;;;;;;;0.75;0.75;;;;;;;;;;5097050;28;20023;-70
2021/06/20 08:33:29;;;;;;;1.55;0.52;;;;;;;;;;5097232;28;20060;-69
2021/06/20 08:35:55;;;;;;;2.35;0.80;;;;;;;;;;5115193;28;20375;-68
2021/06/20 08:38:21;;;;;;;4.20;0.75;;;;;;;;;;5097025;28;20031;-69
2021/06/20 08:40:48;;;;;;;2.78;1.27;;;;;;;;;;5115127;28;20019;-68
2021/06/20 08:43:14;;;;;;;2.25;1.25;;;;;;;;;;5115696;28;20027;-68
2021/06/20 08:45:41;;;;;;;2.33;1.17;;;;;;;;;;5115040;28;20030;-69
2021/06/20 08:48:11;;;;;;;0.60;0.60;;;;;;;;;;5115333;28;20050;-69
2021/06/20 08:50:38;;;;;;;1.00;0.95;;;;;;;;;;5115214;28;20469;-69
2021/06/20 08:53:04;;;;;;;1.00;0.70;;;;;;;;;;5096872;28;20023;-68
2021/06/20 08:55:30;;;;;;;1.33;1.27;;;;;;;;;;5115281;28;20020;-69
2021/06/20 08:58:03;;;;;;;2.15;1.00;;;;;;;;;;5088486;28;20096;-70
2021/06/20 09:00:29;;;;;;;3.20;0.90;;;;;;;;;;5095182;28;20070;-69
2021/06/20 09:03:00;;;;;;;8.98;0.98;;;;;;;;;;5123221;27;20016;-69
2021/06/20 09:05:27;;;;;;;2.42;1.20;;;;;;;;;;5112251;27;20153;-68
2021/06/20 09:07:53;;;;;;;3.15;2.95;;;;;;;;;;5114552;28;20028;-67
2021/06/20 09:10:20;;;;;;;1.85;1.23;;;;;;;;;;5111943;28;20026;-71
2021/06/20 09:12:50;;;;;;;0.90;0.90;;;;;;;;;;5117698;27;20029;-71
2021/06/20 09:15:17;;;;;;;1.42;1.05;;;;;;;;;;5096128;28;20027;-70
2021/06/20 09:17:50;;;;;;;1.65;0.40;;;;;;;;;;5114814;28;20102;-70
2021/06/20 09:20:16;;;;;;;2.78;0.77;;;;;;;;;;5114935;28;20019;-68
2021/06/20 09:22:42;;;;;;;0.77;0.70;;;;;;;;;;5115097;27;20019;-69
2021/06/20 09:25:11;;;;;;;4.55;3.80;;;;;;;;;;5135820;27;20084;-71
2021/06/20 09:27:38;;;;;;;3.08;2.88;;;;;;;;;;5133434;27;20027;-70
2021/06/20 09:30:11;;;;;;;5.88;5.20;;;;;;;;;;5133013;27;20034;-69
2021/06/20 09:32:41;;;;;;;22.02;15.80;;;;;;;;;;5119233;27;20102;-66
2021/06/20 09:35:08;;;;;;;3.00;1.73;;;;;;;;;;5123614;27;20024;-67
2021/06/20 09:37:34;;;;;;;2.20;1.50;;;;;;;;;;5122473;27;20365;-69
2021/06/20 09:40:11;;;;;;;2.60;0.70;;;;;;;;;;5117818;27;20084;-69
2021/06/20 09:42:41;;;;;;;1.75;1.70;;;;;;;;;;5113231;28;20031;-66
2021/06/20 09:45:08;;;;;;;3.85;1.35;;;;;;;;;;5092830;28;20077;-68
2021/06/20 09:47:39;;;;;;;6.00;5.50;;;;;;;;;;5113409;28;20477;-71
2021/06/20 09:50:05;;;;;;;14.10;7.53;;;;;;;;;;5113653;28;20081;-69
2021/06/20 09:52:33;;;;;;;89.82;78.68;;;;;;;;;;5113579;28;20046;-71
2021/06/20 09:55:01;;;;;;;4.85;3.00;;;;;;;;;;5113160;28;20028;-70
2021/06/20 09:57:27;;;;;;;8.55;7.57;;;;;;;;;;5113381;28;20030;-69
2021/06/20 09:59:55;;;;;;;6.95;6.25;;;;;;;;;;5112758;28;20016;-71
2021/06/20 10:02:24;;;;;;;1.58;1.35;;;;;;;;;;5112871;28;20555;-78
2021/06/20 10:04:50;;;;;;;5.25;1.38;;;;;;;;;;5094738;28;20533;-75
2021/06/20 10:07:16;;;;;;;5.22;1.33;;;;;;;;;;5095175;28;20070;-70
2021/06/20 10:09:43;;;;;;;19.45;17.95;;;;;;;;;;5113505;28;20498;-76
2021/06/20 10:12:10;;;;;;;22.05;20.15;;;;;;;;;;5113610;28;20020;-76
2021/06/20 10:14:42;;;;;;;2.53;2.33;;;;;;;;;;5113400;28;20020;-80
2021/06/20 10:17:10;;;;;;;178.98;161.32;;;;;;;;;;5094878;28;20039;-76
2021/06/20 10:19:41;;;;;;;171.10;153.55;;;;;;;;;;5095220;28;20057;-73
2021/06/20 10:22:08;;;;;;;60.28;53.90;;;;;;;;;;5095142;28;20072;-73
2021/06/20 10:24:49;;;;;;;59.00;53.40;;;;;;;;;;5113879;28;20016;-71
2021/06/20 10:27:34;;;;;;;31.40;28.38;;;;;;;;;;5094309;28;20028;-70
2021/06/20 10:30:04;;;;;;;303.42;277.27;;;;;;;;;;5094861;28;20015;-71
2021/06/20 10:32:35;;;;;;;32.90;30.20;;;;;;;;;;5111525;28;20043;-71
2021/06/20 10:35:02;;;;;;;36.08;32.63;;;;;;;;;;5093123;28;20023;-71
2021/06/20 10:37:33;;;;;;;11.05;10.25;;;;;;;;;;5094226;28;20138;-71
2021/06/20 10:40:01;;;;;;;23.13;21.10;;;;;;;;;;5094033;28;20030;-71
2021/06/20 10:42:35;;;;;;;6.28;5.78;;;;;;;;;;5094782;28;20028;-70
2021/06/20 10:45:01;;;;;;;22.10;17.83;;;;;;;;;;5113314;28;20027;-69
2021/06/20 10:47:32;;;;;;;2.80;2.58;;;;;;;;;;5094162;28;20468;-72
2021/06/20 10:50:09;;;;;;;2.83;2.58;;;;;;;;;;5078229;28;20059;-74
2021/06/20 10:52:36;;;;;;;5.15;3.22;;;;;;;;;;5113117;28;20030;-69
2021/06/20 10:55:04;;;;;;;5.35;4.65;;;;;;;;;;5094809;28;20072;-71
2021/06/20 10:57:30;;;;;;;3.08;2.65;;;;;;;;;;5119602;28;20031;-75
2021/06/20 10:59:57;;;;;;;;;;;;;;;;;;5110877;28;20030;-71
2021/06/20 11:02:33;;;;;;;8.95;7.88;;;;;;;;;;5117382;28;19912;-72
2021/06/20 11:05:00;;;;;;;3.42;3.10;;;;;;;;;;5125003;28;20038;-73
2021/06/20 11:07:28;;;;;;;2.83;2.63;;;;;;;;;;5107558;28;20035;-69
2021/06/20 11:09:54;;;;;;;1.95;1.52;;;;;;;;;;5096127;28;20020;-69
2021/06/20 11:12:21;;;;;;;3.00;1.40;;;;;;;;;;5112666;28;20047;-69
2021/06/20 11:14:49;;;;;;;1.67;1.58;;;;;;;;;;5097739;28;20051;-69
2021/06/20 11:17:16;;;;;;;1.38;1.38;;;;;;;;;;5101991;28;20525;-69
2021/06/20 11:19:42;;;;;;;3.42;1.40;;;;;;;;;;5112594;28;20062;-69
2021/06/20 11:22:09;;;;;;;1.05;1.00;;;;;;;;;;5113094;28;20023;-71
2021/06/20 11:24:37;;;;;;;1.30;1.30;;;;;;;;;;5112547;28;20031;-67
2021/06/20 11:27:04;;;;;;;1.25;1.20;;;;;;;;;;5112433;28;20073;-69
2021/06/20 11:29:41;;;;;;;3.33;1.02;;;;;;;;;;5112632;28;20024;-69
2021/06/20 11:32:14;;;;;;;1.80;1.15;;;;;;;;;;5112186;28;20094;-69
2021/06/20 11:34:43;;;;;;;1.60;1.58;;;;;;;;;;5112941;28;20103;-69
2021/06/20 11:37:28;;;;;;;2.80;1.35;;;;;;;;;;5112943;28;20087;-70
2021/06/20 11:39:55;;;;;;;1.52;1.25;;;;;;;;;;5111834;28;20024;-72
2021/06/20 11:42:25;;;;;;;2.33;2.13;;;;;;;;;;5093805;28;20111;-73
2021/06/20 11:44:55;;;;;;;1.55;1.02;;;;;;;;;;5118206;28;20034;-70
2021/06/20 11:47:29;;;;;;;9.35;1.40;;;;;;;;;;5111308;28;20040;-71
2021/06/20 11:49:55;;;;;;;1.20;1.20;;;;;;;;;;5093339;28;20039;-68
2021/06/20 11:52:21;;;;;;;;;;;;;;;;;;5115226;28;20486;-68
2021/06/20 11:54:47;;;;;;;0.82;0.75;;;;;;;;;;5096254;28;19995;-70
2021/06/20 11:57:14;;;;;;;5.00;2.33;;;;;;;;;;5089870;28;20139;-70
2021/06/20 11:59:41;;;;;;;1.08;1.02;;;;;;;;;;5100504;28;20027;-69
2021/06/20 12:02:11;;;;;;;1.00;1.00;;;;;;;;;;5105727;28;20044;-71
2021/06/20 12:04:41;;;;;;;3.00;1.05;;;;;;;;;;5112161;27;20040;-70
2021/06/20 12:07:08;;;;;;;2.20;1.25;;;;;;;;;;5093622;28;20039;-69
2021/06/20 12:09:35;;;;;;;4.63;1.38;;;;;;;;;;5106461;28;20053;-72
2021/06/20 12:12:03;;;;;;;1.25;1.25;;;;;;;;;;5116038;28;20016;-81
2021/06/20 12:14:30;;;;;;;3.50;1.23;;;;;;;;;;5097246;28;20490;-73
2021/06/20 12:16:56;;;;;;;4.43;2.35;;;;;;;;;;5101507;27;20053;-74
2021/06/20 12:19:23;;;;;;;2.22;1.50;;;;;;;;;;5115224;27;20479;-75
2021/06/20 12:21:51;;;;;;;1.30;1.20;;;;;;;;;;5093940;27;20034;-74
2021/06/20 12:24:17;;;;;;;1.05;0.95;;;;;;;;;;5123800;27;20099;-71
2021/06/20 12:26:52;;;;;;;1.20;1.10;;;;;;;;;;5112314;28;20113;-71
2021/06/20 12:29:19;;;;;;;0.90;0.90;;;;;;;;;;5105060;27;20020;-73
2021/06/20 12:31:59;;;;;;;2.28;1.30;;;;;;;;;;5105070;28;20020;-72
2021/06/20 12:34:25;;;;;;;1.42;1.30;;;;;;;;;;5105123;28;20469;-72
2021/06/20 12:37:01;;;;;;;1.30;1.20;;;;;;;;;;5081643;28;20476;-71
2021/06/20 12:39:39;;;;;;;1.45;1.45;;;;;;;;;;5110244;27;20046;-71
2021/06/20 12:42:05;;;;;;;2.80;1.65;;;;;;;;;;5106198;28;20024;-72
2021/06/20 12:44:31;;;;;;;;;;;;;;;;;;5087043;28;20027;-68
2021/06/20 12:46:57;;;;;;;;;;;;;;;;;;5111196;28;19915;-72
2021/06/20 12:49:23;;;;;;;;;;;;;;;;;;5105516;28;19907;-70
2021/06/20 12:51:53;;;;;;;;;;;;;;;;;;5102874;28;19915;-71
2021/06/20 12:54:22;;;;;;;4.55;1.42;;;;;;;;;;5118763;27;19912;-71
2021/06/20 12:56:49;;;;;;;5.38;1.73;;;;;;;;;;5086423;28;20370;-71
2021/06/20 12:59:16;;;;;;;2.28;1.52;;;;;;;;;;5104800;28;20065;-72
2021/06/20 13:01:48;;;;;;;1.23;1.23;;;;;;;;;;5084264;28;20024;-75
2021/06/20 13:04:15;;;;;;;2.47;1.50;;;;;;;;;;5112881;27;20031;-73
2021/06/20 13:06:42;;;;;;;3.15;1.92;;;;;;;;;;5095848;28;20030;-70
2021/06/20 13:09:08;;;;;;;8.20;2.38;;;;;;;;;;5112011;28;20096;-72
2021/06/20 13:11:35;;;;;;;4.55;1.88;;;;;;;;;;5092795;28;20064;-69
2021/06/20 13:14:15;;;;;;;7.55;2.38;;;;;;;;;;5091790;28;20050;-70
2021/06/20 13:16:42;;;;;;;6.60;1.98;;;;;;;;;;5104056;28;20030;-69
2021/06/20 13:19:08;;;;;;;4.80;1.90;;;;;;;;;;5103126;28;20044;-68
2021/06/20 13:21:35;;;;;;;10.23;4.90;;;;;;;;;;5103541;28;20012;-70
2021/06/20 13:24:01;;;;;;;16.70;4.78;;;;;;;;;;5086459;28;20068;-70
2021/06/20 13:26:27;;;;;;;4.13;2.33;;;;;;;;;;5114553;28;20023;-70
2021/06/20 13:28:53;;;;;;;2.83;1.23;;;;;;;;;;5114236;28;20035;-71
2021/06/20 13:31:19;;;;;;;3.17;2.92;;;;;;;;;;5095865;28;20434;-69
2021/06/20 13:33:48;;;;;;;3.72;1.92;;;;;;;;;;5114434;28;20398;-71
2021/06/20 13:36:14;;;;;;;4.20;1.80;;;;;;;;;;5114301;28;20456;-70
2021/06/20 13:38:40;;;;;;;3.15;2.35;;;;;;;;;;5113861;28;20120;-70
2021/06/20 13:41:06;;;;;;;6.25;2.38;;;;;;;;;;5098920;27;20093;-68
2021/06/20 13:43:32;;;;;;;1.85;1.85;;;;;;;;;;5114657;28;20470;-67
2021/06/20 13:45:59;;;;;;;2.00;1.80;;;;;;;;;;5113553;28;20038;-69
2021/06/20 13:48:25;;;;;;;3.42;2.10;;;;;;;;;;5113474;28;20045;-72
2021/06/20 13:50:51;;;;;;;3.33;2.17;;;;;;;;;;5095398;28;20034;-69
2021/06/20 13:53:17;;;;;;;3.83;1.90;;;;;;;;;;5095046;28;20023;-71
2021/06/20 13:55:43;;;;;;;2.50;2.40;;;;;;;;;;5095322;28;20031;-71
2021/06/20 13:58:10;;;;;;;3.45;1.58;;;;;;;;;;5094494;28;20047;-72
2021/06/20 14:00:36;;;;;;;4.13;2.75;;;;;;;;;;5093377;28;20032;-70
2021/06/20 14:03:02;;;;;;;78.88;72.65;;;;;;;;;;5111559;28;20100;-71
2021/06/20 14:05:29;;;;;;;3.47;3.17;;;;;;;;;;5110901;28;20099;-70
2021/06/20 14:07:55;;;;;;;3.42;1.65;;;;;;;;;;5111808;28;20039;-70
2021/06/20 14:10:21;;;;;;;3.25;1.77;;;;;;;;;;5112220;28;20035;-71
2021/06/20 14:12:48;;;;;;;3.55;2.15;;;;;;;;;;5111179;28;20038;-70
2021/06/20 14:15:14;;;;;;;1.73;1.70;;;;;;;;;;5094423;28;20034;-73
2021/06/20 14:17:40;;;;;;;3.33;1.92;;;;;;;;;;5094727;28;20107;-74
2021/06/20 14:20:07;;;;;;;3.15;2.03;;;;;;;;;;5112960;28;20094;-69
2021/06/20 14:22:33;;;;;;;3.42;1.73;;;;;;;;;;5113146;28;20437;-72
2021/06/20 14:24:59;;;;;;;;;;;;;;;;;;5111463;28;20092;-73
2021/06/20 14:27:26;;;;;;;4.80;1.25;;;;;;;;;;5112567;28;20052;-70
2021/06/20 14:29:52;;;;;;;4.30;2.30;;;;;;;;;;5113638;28;20099;-70
2021/06/20 14:32:18;;;;;;;7.45;2.47;;;;;;;;;;5113148;28;20090;-66
2021/06/20 14:34:44;;;;;;;2.35;1.65;;;;;;;;;;5112838;28;20064;-69
2021/06/20 14:37:10;;;;;;;1.70;1.55;;;;;;;;;;5092404;28;20108;-69
2021/06/20 14:39:36;;;;;;;2.80;1.20;;;;;;;;;;5109241;28;20522;-73
2021/06/20 14:42:02;;;;;;;3.13;1.73;;;;;;;;;;5108880;28;20151;-71
2021/06/20 14:44:28;;;;;;;2.13;1.48;;;;;;;;;;5109247;28;20113;-70